Airfield :
LOGIN :

Register | Disclaimer

   EN    FR    IT 

 










Legend :    VFR   Marginal VFR   IFR   Intensive IFR   Very Intensive IFR
Visi :
Ceiling :
>= 8 km
>= 3000ft
5 to 8 km
1000 to 3000 ft
1500m to 5 km
500 to 1000 ft
800 to 1500m
200 to 500 ft
< 800m
< 200 ft
Symbols :   Thunderstorms  Fog  Heavy snow  Heavy precipitations  Wind > 20 kt
SIGMETs :     Misc.  Thunderstorms  Icing  Turbulence  Mountain Waves  Volcanic Ashes







- Airport Elevation : 13 ft
- IATA code : SNR
- Download approach charts


LFRZ - St-Nazaire

CURRENT METAR :
  • 280330Z AUTO 24008KT 9999 -RADZ BKN008 BKN037 OVC044 17/16 Q1000 TEMPO 3000 RA BKN006 SCT015CB

EXPIRED METARs :
  • 280300Z AUTO 24012KT 9999 -DZ SCT010/// BKN019/// BKN030/// ///TCU 17/16 Q1000 BECMG BKN010
  • 280230Z AUTO 24011KT 9999 -DZ BKN008/// BKN013/// BKN023/// ///TCU 17/16 Q1000 BECMG BKN010
  • 280200Z AUTO 23010KT 9999 -RA BKN008/// BKN025/// OVC088/// ///TCU 18/16 Q1000 BECMG BKN010
  • 280130Z AUTO 22009KT 9999 -RA SCT009/// BKN016/// BKN060/// ///TCU 18/16 Q1001 BECMG BKN010
  • 280100Z AUTO 19009KT 9999 ///TCU 18/16 Q1001 TEMPO BKN010

TAF AMD TAF LFRZ
Valid from the 28 at 03:00 until the 29 at 00:00 UTC


280312Z 2803/2824 22008KT 9999 BKN010
TEMPO 2803/2805 3000 RA BKN006 SCT015CB
BECMG 2805/2807 28010KT SCT020
TEMPO 2807/2821 SHRA BKN025TCU
PROB30
TEMPO 2814/2818 30015G25KT TSRA SCT020CB
No reported NOTAMs for that airfield.
1 SIGMET reported for the Brest FIR (LFRR) :
 
Embedded thunderstorms
LFRR SIGMET 1 VALID 280300/280500 LFPW
LFRR BREST FIR/UIR EMBD TS OBS WI N4600 W00800 - N4715 W00800 - N4530 W00600 - N4500 W00700 TOP FL280 MOV E 20KT NC=



MET'MAP, your aeronautical weather chart ! - Copyright ORBIFLY December 2007 - Disclaimer

ORBIFLY MET'MAP TEAM :

Programming & Development : Alexandra Zaïnal
Concept & Development : Baudouin d'Aumeries
Co-Development & Prog : Marc-Olivier Méhu
Technical & hardware support : Manuel Goepfert

Contact : metmap@orbifly.com




SOURCES & CREDITS :

   NOAA